sensor_id;sensor_type;location;lat;lon;timestamp;P1;durP1;ratioP1;P2;durP2;ratioP2
26201;SDS011;13944;28.562;77.188;2023-02-27T00:00:11;176.43;;;122.57;;
26201;SDS011;13944;28.562;77.188;2023-02-27T00:02:40;174.00;;;124.37;;
26201;SDS011;13944;28.562;77.188;2023-02-27T00:05:08;186.53;;;125.40;;
26201;SDS011;13944;28.562;77.188;2023-02-27T00:07:35;181.23;;;126.60;;
26201;SDS011;13944;28.562;77.188;2023-02-27T00:10:02;182.47;;;125.83;;
26201;SDS011;13944;28.562;77.188;2023-02-27T00:12:29;180.67;;;125.07;;
26201;SDS011;13944;28.562;77.188;2023-02-27T00:15:03;182.90;;;131.50;;
26201;SDS011;13944;28.562;77.188;2023-02-27T00:17:30;179.33;;;126.90;;
26201;SDS011;13944;28.562;77.188;2023-02-27T00:19:57;174.77;;;124.27;;
26201;SDS011;13944;28.562;77.188;2023-02-27T00:22:24;173.27;;;124.47;;
26201;SDS011;13944;28.562;77.188;2023-02-27T00:24:51;181.97;;;124.20;;
26201;SDS011;13944;28.562;77.188;2023-02-27T00:27:18;178.07;;;127.00;;
26201;SDS011;13944;28.562;77.188;2023-02-27T00:29:45;186.10;;;130.33;;
26201;SDS011;13944;28.562;77.188;2023-02-27T00:32:13;204.07;;;137.20;;
26201;SDS011;13944;28.562;77.188;2023-02-27T00:34:40;196.33;;;134.07;;
26201;SDS011;13944;28.562;77.188;2023-02-27T00:37:07;200.80;;;136.87;;
26201;SDS011;13944;28.562;77.188;2023-02-27T00:39:34;192.77;;;133.83;;
26201;SDS011;13944;28.562;77.188;2023-02-27T00:42:01;204.63;;;137.50;;
26201;SDS011;13944;28.562;77.188;2023-02-27T00:44:28;194.10;;;139.07;;
26201;SDS011;13944;28.562;77.188;2023-02-27T00:46:55;195.93;;;134.20;;
26201;SDS011;13944;28.562;77.188;2023-02-27T00:49:22;183.40;;;132.30;;
26201;SDS011;13944;28.562;77.188;2023-02-27T00:51:50;199.10;;;136.37;;
26201;SDS011;13944;28.562;77.188;2023-02-27T00:54:17;196.37;;;131.97;;
26201;SDS011;13944;28.562;77.188;2023-02-27T00:56:44;191.87;;;131.13;;
26201;SDS011;13944;28.562;77.188;2023-02-27T00:59:11;208.33;;;132.93;;
26201;SDS011;13944;28.562;77.188;2023-02-27T01:01:38;194.70;;;132.80;;
26201;SDS011;13944;28.562;77.188;2023-02-27T01:04:05;193.77;;;131.23;;
26201;SDS011;13944;28.562;77.188;2023-02-27T01:06:32;199.90;;;138.33;;
26201;SDS011;13944;28.562;77.188;2023-02-27T01:08:59;194.47;;;133.30;;
26201;SDS011;13944;28.562;77.188;2023-02-27T01:11:26;208.30;;;137.13;;
26201;SDS011;13944;28.562;77.188;2023-02-27T01:13:53;189.70;;;131.63;;
26201;SDS011;13944;28.562;77.188;2023-02-27T01:16:20;198.53;;;133.63;;
26201;SDS011;13944;28.562;77.188;2023-02-27T01:18:47;236.20;;;135.80;;
26201;SDS011;13944;28.562;77.188;2023-02-27T01:21:15;207.27;;;134.00;;
26201;SDS011;13944;28.562;77.188;2023-02-27T01:23:44;200.07;;;130.97;;
26201;SDS011;13944;28.562;77.188;2023-02-27T01:26:11;248.50;;;132.73;;
26201;SDS011;13944;28.562;77.188;2023-02-27T01:28:38;207.17;;;132.60;;
26201;SDS011;13944;28.562;77.188;2023-02-27T01:31:05;225.00;;;133.83;;
26201;SDS011;13944;28.562;77.188;2023-02-27T01:33:33;206.57;;;132.67;;
26201;SDS011;13944;28.562;77.188;2023-02-27T01:36:00;219.63;;;137.57;;
26201;SDS011;13944;28.562;77.188;2023-02-27T01:38:28;201.60;;;130.33;;
26201;SDS011;13944;28.562;77.188;2023-02-27T01:40:55;210.13;;;137.07;;
26201;SDS011;13944;28.562;77.188;2023-02-27T01:43:22;214.63;;;136.93;;
26201;SDS011;13944;28.562;77.188;2023-02-27T01:45:49;213.03;;;140.43;;
26201;SDS011;13944;28.562;77.188;2023-02-27T01:50:52;215.43;;;138.63;;
26201;SDS011;13944;28.562;77.188;2023-02-27T01:53:20;209.27;;;136.67;;
26201;SDS011;13944;28.562;77.188;2023-02-27T01:55:54;214.17;;;138.47;;
26201;SDS011;13944;28.562;77.188;2023-02-27T01:58:24;209.43;;;138.87;;
26201;SDS011;13944;28.562;77.188;2023-02-27T02:00:51;225.33;;;139.03;;
26201;SDS011;13944;28.562;77.188;2023-02-27T02:03:21;222.67;;;144.70;;
26201;SDS011;13944;28.562;77.188;2023-02-27T02:05:49;212.57;;;140.67;;
26201;SDS011;13944;28.562;77.188;2023-02-27T02:08:17;206.87;;;137.47;;
26201;SDS011;13944;28.562;77.188;2023-02-27T02:10:46;224.77;;;139.77;;
26201;SDS011;13944;28.562;77.188;2023-02-27T02:13:14;228.63;;;154.23;;
26201;SDS011;13944;28.562;77.188;2023-02-27T02:15:47;204.00;;;140.40;;
26201;SDS011;13944;28.562;77.188;2023-02-27T02:23:31;214.47;;;145.20;;
26201;SDS011;13944;28.562;77.188;2023-02-27T02:31:29;245.50;;;162.07;;
26201;SDS011;13944;28.562;77.188;2023-02-27T02:34:13;225.88;;;155.00;;
26201;SDS011;13944;28.562;77.188;2023-02-27T02:39:38;262.77;;;152.43;;
26201;SDS011;13944;28.562;77.188;2023-02-27T02:55:00;253.43;;;157.27;;
26201;SDS011;13944;28.562;77.188;2023-02-27T02:57:32;238.83;;;152.20;;
26201;SDS011;13944;28.562;77.188;2023-02-27T03:00:03;237.93;;;159.03;;
26201;SDS011;13944;28.562;77.188;2023-02-27T03:02:33;223.95;;;149.75;;
26201;SDS011;13944;28.562;77.188;2023-02-27T03:05:04;222.93;;;150.13;;
26201;SDS011;13944;28.562;77.188;2023-02-27T03:07:37;238.10;;;144.30;;
26201;SDS011;13944;28.562;77.188;2023-02-27T03:10:11;221.23;;;146.83;;
26201;SDS011;13944;28.562;77.188;2023-02-27T03:12:40;250.07;;;160.88;;
26201;SDS011;13944;28.562;77.188;2023-02-27T03:15:14;231.00;;;151.10;;
26201;SDS011;13944;28.562;77.188;2023-02-27T03:20:45;228.73;;;141.87;;
26201;SDS011;13944;28.562;77.188;2023-02-27T03:23:15;212.73;;;149.90;;
26201;SDS011;13944;28.562;77.188;2023-02-27T03:25:43;196.80;;;134.23;;
26201;SDS011;13944;28.562;77.188;2023-02-27T03:28:16;219.00;;;138.83;;
26201;SDS011;13944;28.562;77.188;2023-02-27T03:30:59;226.30;;;140.97;;
26201;SDS011;13944;28.562;77.188;2023-02-27T03:33:41;224.83;;;143.03;;
26201;SDS011;13944;28.562;77.188;2023-02-27T03:36:12;213.53;;;141.87;;
26201;SDS011;13944;28.562;77.188;2023-02-27T03:38:47;217.93;;;139.73;;
26201;SDS011;13944;28.562;77.188;2023-02-27T03:44:02;212.60;;;141.97;;
26201;SDS011;13944;28.562;77.188;2023-02-27T03:46:30;234.57;;;147.90;;
26201;SDS011;13944;28.562;77.188;2023-02-27T03:48:57;218.23;;;141.80;;
26201;SDS011;13944;28.562;77.188;2023-02-27T03:51:24;228.27;;;147.25;;
26201;SDS011;13944;28.562;77.188;2023-02-27T03:56:57;195.20;;;127.28;;
26201;SDS011;13944;28.562;77.188;2023-02-27T03:59:22;187.70;;;122.63;;
26201;SDS011;13944;28.562;77.188;2023-02-27T04:01:50;192.80;;;127.13;;
26201;SDS011;13944;28.562;77.188;2023-02-27T04:04:17;190.43;;;125.10;;
26201;SDS011;13944;28.562;77.188;2023-02-27T04:06:50;174.27;;;117.25;;
26201;SDS011;13944;28.562;77.188;2023-02-27T04:09:55;177.57;;;117.00;;
26201;SDS011;13944;28.562;77.188;2023-02-27T04:15:30;174.53;;;111.53;;
26201;SDS011;13944;28.562;77.188;2023-02-27T04:23:11;176.87;;;119.03;;
26201;SDS011;13944;28.562;77.188;2023-02-27T04:26:04;182.33;;;117.47;;
26201;SDS011;13944;28.562;77.188;2023-02-27T04:28:46;151.17;;;107.10;;
26201;SDS011;13944;28.562;77.188;2023-02-27T04:31:27;160.52;;;110.15;;
26201;SDS011;13944;28.562;77.188;2023-02-27T04:33:58;164.73;;;108.20;;
26201;SDS011;13944;28.562;77.188;2023-02-27T04:36:30;148.88;;;103.15;;
26201;SDS011;13944;28.562;77.188;2023-02-27T04:39:05;153.35;;;104.63;;
26201;SDS011;13944;28.562;77.188;2023-02-27T04:41:41;142.07;;;96.00;;
26201;SDS011;13944;28.562;77.188;2023-02-27T04:44:09;126.75;;;86.75;;
26201;SDS011;13944;28.562;77.188;2023-02-27T04:46:38;118.13;;;75.63;;
26201;SDS011;13944;28.562;77.188;2023-02-27T04:49:14;112.93;;;75.47;;
26201;SDS011;13944;28.562;77.188;2023-02-27T04:51:46;100.95;;;67.88;;
26201;SDS011;13944;28.562;77.188;2023-02-27T04:54:17;111.75;;;74.80;;
26201;SDS011;13944;28.562;77.188;2023-02-27T04:56:48;109.75;;;73.70;;
26201;SDS011;13944;28.562;77.188;2023-02-27T04:59:23;105.93;;;78.07;;
26201;SDS011;13944;28.562;77.188;2023-02-27T05:01:56;93.18;;;64.68;;
26201;SDS011;13944;28.562;77.188;2023-02-27T05:04:26;96.95;;;66.72;;
26201;SDS011;13944;28.562;77.188;2023-02-27T05:06:55;108.20;;;70.95;;
26201;SDS011;13944;28.562;77.188;2023-02-27T05:12:00;98.78;;;60.97;;
26201;SDS011;13944;28.562;77.188;2023-02-27T05:17:14;95.22;;;61.78;;
26201;SDS011;13944;28.562;77.188;2023-02-27T05:19:43;104.00;;;67.75;;
26201;SDS011;13944;28.562;77.188;2023-02-27T05:25:07;91.75;;;61.03;;
26201;SDS011;13944;28.562;77.188;2023-02-27T05:27:39;102.43;;;65.95;;
26201;SDS011;13944;28.562;77.188;2023-02-27T05:35:26;99.07;;;61.35;;
26201;SDS011;13944;28.562;77.188;2023-02-27T05:40:30;88.97;;;59.50;;
26201;SDS011;13944;28.562;77.188;2023-02-27T05:43:06;87.97;;;56.60;;
26201;SDS011;13944;28.562;77.188;2023-02-27T05:45:37;86.78;;;54.65;;
26201;SDS011;13944;28.562;77.188;2023-02-27T05:48:06;80.60;;;51.70;;
26201;SDS011;13944;28.562;77.188;2023-02-27T05:50:34;91.50;;;58.08;;
26201;SDS011;13944;28.562;77.188;2023-02-27T05:53:05;95.40;;;57.17;;
26201;SDS011;13944;28.562;77.188;2023-02-27T05:55:43;89.65;;;57.03;;
26201;SDS011;13944;28.562;77.188;2023-02-27T05:59:13;87.38;;;54.03;;
26201;SDS011;13944;28.562;77.188;2023-02-27T06:01:09;90.82;;;52.17;;
26201;SDS011;13944;28.562;77.188;2023-02-27T06:03:37;82.78;;;51.22;;
26201;SDS011;13944;28.562;77.188;2023-02-27T06:06:06;77.63;;;46.05;;
26201;SDS011;13944;28.562;77.188;2023-02-27T06:08:34;65.07;;;43.63;;
26201;SDS011;13944;28.562;77.188;2023-02-27T06:11:01;74.68;;;45.60;;
26201;SDS011;13944;28.562;77.188;2023-02-27T06:13:28;77.03;;;47.45;;
26201;SDS011;13944;28.562;77.188;2023-02-27T06:15:55;77.90;;;46.05;;
26201;SDS011;13944;28.562;77.188;2023-02-27T06:18:22;67.45;;;41.13;;
26201;SDS011;13944;28.562;77.188;2023-02-27T06:20:49;57.00;;;35.20;;
26201;SDS011;13944;28.562;77.188;2023-02-27T06:23:16;64.95;;;38.85;;
26201;SDS011;13944;28.562;77.188;2023-02-27T06:25:43;67.88;;;41.72;;
26201;SDS011;13944;28.562;77.188;2023-02-27T06:28:14;68.55;;;42.17;;
26201;SDS011;13944;28.562;77.188;2023-02-27T06:30:41;63.90;;;43.50;;
26201;SDS011;13944;28.562;77.188;2023-02-27T06:33:08;71.45;;;45.17;;
26201;SDS011;13944;28.562;77.188;2023-02-27T06:35:36;68.38;;;43.10;;
26201;SDS011;13944;28.562;77.188;2023-02-27T06:38:04;67.88;;;42.85;;
26201;SDS011;13944;28.562;77.188;2023-02-27T06:40:31;67.28;;;42.05;;
26201;SDS011;13944;28.562;77.188;2023-02-27T06:42:58;58.83;;;36.90;;
26201;SDS011;13944;28.562;77.188;2023-02-27T06:45:25;59.97;;;36.38;;
26201;SDS011;13944;28.562;77.188;2023-02-27T06:47:52;63.72;;;39.15;;
26201;SDS011;13944;28.562;77.188;2023-02-27T06:50:19;64.40;;;39.47;;
26201;SDS011;13944;28.562;77.188;2023-02-27T06:52:46;58.20;;;36.00;;
26201;SDS011;13944;28.562;77.188;2023-02-27T06:55:16;64.22;;;41.45;;
26201;SDS011;13944;28.562;77.188;2023-02-27T06:57:45;70.43;;;42.53;;
26201;SDS011;13944;28.562;77.188;2023-02-27T07:00:13;78.53;;;45.15;;
26201;SDS011;13944;28.562;77.188;2023-02-27T07:02:41;81.10;;;45.20;;
26201;SDS011;13944;28.562;77.188;2023-02-27T07:05:08;78.40;;;46.33;;
26201;SDS011;13944;28.562;77.188;2023-02-27T07:07:38;72.90;;;45.38;;
26201;SDS011;13944;28.562;77.188;2023-02-27T07:10:06;80.45;;;47.40;;
26201;SDS011;13944;28.562;77.188;2023-02-27T07:12:36;69.93;;;43.70;;
26201;SDS011;13944;28.562;77.188;2023-02-27T07:15:03;67.53;;;41.17;;
26201;SDS011;13944;28.562;77.188;2023-02-27T07:17:40;65.32;;;40.13;;
26201;SDS011;13944;28.562;77.188;2023-02-27T07:20:08;60.28;;;37.33;;
26201;SDS011;13944;28.562;77.188;2023-02-27T07:22:35;66.95;;;36.47;;
26201;SDS011;13944;28.562;77.188;2023-02-27T07:25:02;63.70;;;37.72;;
26201;SDS011;13944;28.562;77.188;2023-02-27T07:27:30;70.78;;;40.60;;
26201;SDS011;13944;28.562;77.188;2023-02-27T07:29:57;65.80;;;44.47;;
26201;SDS011;13944;28.562;77.188;2023-02-27T07:32:24;68.97;;;45.25;;
26201;SDS011;13944;28.562;77.188;2023-02-27T07:34:51;72.07;;;41.25;;
26201;SDS011;13944;28.562;77.188;2023-02-27T07:37:18;68.25;;;43.53;;
26201;SDS011;13944;28.562;77.188;2023-02-27T07:39:45;58.58;;;38.60;;
26201;SDS011;13944;28.562;77.188;2023-02-27T07:42:12;61.97;;;37.15;;
26201;SDS011;13944;28.562;77.188;2023-02-27T07:44:39;68.28;;;40.60;;
26201;SDS011;13944;28.562;77.188;2023-02-27T07:47:09;68.57;;;39.03;;
26201;SDS011;13944;28.562;77.188;2023-02-27T07:49:36;68.47;;;36.65;;
26201;SDS011;13944;28.562;77.188;2023-02-27T07:52:03;46.17;;;30.33;;
26201;SDS011;13944;28.562;77.188;2023-02-27T07:54:32;57.90;;;34.40;;
26201;SDS011;13944;28.562;77.188;2023-02-27T07:56:59;61.88;;;36.63;;
26201;SDS011;13944;28.562;77.188;2023-02-27T07:59:26;63.45;;;38.63;;
26201;SDS011;13944;28.562;77.188;2023-02-27T08:01:53;63.67;;;36.20;;
26201;SDS011;13944;28.562;77.188;2023-02-27T08:04:21;51.45;;;32.00;;
26201;SDS011;13944;28.562;77.188;2023-02-27T08:06:48;49.63;;;30.33;;
26201;SDS011;13944;28.562;77.188;2023-02-27T08:09:15;54.85;;;29.00;;
26201;SDS011;13944;28.562;77.188;2023-02-27T08:11:42;56.10;;;34.33;;
26201;SDS011;13944;28.562;77.188;2023-02-27T08:14:09;56.78;;;32.92;;
26201;SDS011;13944;28.562;77.188;2023-02-27T08:16:36;54.33;;;30.13;;
26201;SDS011;13944;28.562;77.188;2023-02-27T08:19:03;49.78;;;27.23;;
26201;SDS011;13944;28.562;77.188;2023-02-27T08:21:30;35.30;;;23.73;;
26201;SDS011;13944;28.562;77.188;2023-02-27T08:23:58;45.53;;;28.08;;
26201;SDS011;13944;28.562;77.188;2023-02-27T08:26:25;43.80;;;29.98;;
26201;SDS011;13944;28.562;77.188;2023-02-27T08:28:52;51.90;;;32.05;;
26201;SDS011;13944;28.562;77.188;2023-02-27T08:31:19;50.53;;;31.95;;
26201;SDS011;13944;28.562;77.188;2023-02-27T08:33:46;46.95;;;30.92;;
26201;SDS011;13944;28.562;77.188;2023-02-27T08:36:13;48.42;;;27.52;;
26201;SDS011;13944;28.562;77.188;2023-02-27T08:38:40;47.45;;;29.92;;
26201;SDS011;13944;28.562;77.188;2023-02-27T08:41:07;40.22;;;25.02;;
26201;SDS011;13944;28.562;77.188;2023-02-27T08:43:37;47.95;;;28.95;;
26201;SDS011;13944;28.562;77.188;2023-02-27T08:46:04;47.80;;;28.73;;
26201;SDS011;13944;28.562;77.188;2023-02-27T08:48:32;35.75;;;23.30;;
26201;SDS011;13944;28.562;77.188;2023-02-27T08:50:59;45.97;;;29.35;;
26201;SDS011;13944;28.562;77.188;2023-02-27T08:53:26;64.63;;;33.33;;
26201;SDS011;13944;28.562;77.188;2023-02-27T08:55:53;49.80;;;29.25;;
26201;SDS011;13944;28.562;77.188;2023-02-27T08:58:20;40.97;;;25.33;;
26201;SDS011;13944;28.562;77.188;2023-02-27T09:00:47;48.35;;;28.40;;
26201;SDS011;13944;28.562;77.188;2023-02-27T09:03:17;41.53;;;26.10;;
26201;SDS011;13944;28.562;77.188;2023-02-27T09:05:46;46.22;;;25.88;;
26201;SDS011;13944;28.562;77.188;2023-02-27T09:08:16;39.33;;;26.73;;
26201;SDS011;13944;28.562;77.188;2023-02-27T09:10:43;49.97;;;30.13;;
26201;SDS011;13944;28.562;77.188;2023-02-27T09:13:10;47.10;;;28.70;;
26201;SDS011;13944;28.562;77.188;2023-02-27T09:15:38;54.28;;;30.40;;
26201;SDS011;13944;28.562;77.188;2023-02-27T09:18:05;55.92;;;30.70;;
26201;SDS011;13944;28.562;77.188;2023-02-27T09:20:32;51.97;;;33.47;;
26201;SDS011;13944;28.562;77.188;2023-02-27T09:23:06;57.13;;;35.63;;
26201;SDS011;13944;28.562;77.188;2023-02-27T09:25:33;49.80;;;33.63;;
26201;SDS011;13944;28.562;77.188;2023-02-27T09:28:00;53.42;;;35.50;;
26201;SDS011;13944;28.562;77.188;2023-02-27T09:30:27;54.45;;;34.42;;
26201;SDS011;13944;28.562;77.188;2023-02-27T09:32:54;57.30;;;37.50;;
26201;SDS011;13944;28.562;77.188;2023-02-27T09:35:21;51.90;;;33.00;;
26201;SDS011;13944;28.562;77.188;2023-02-27T09:37:48;51.42;;;33.50;;
26201;SDS011;13944;28.562;77.188;2023-02-27T09:40:25;44.63;;;29.85;;
26201;SDS011;13944;28.562;77.188;2023-02-27T09:42:53;48.03;;;30.13;;
26201;SDS011;13944;28.562;77.188;2023-02-27T09:45:26;54.10;;;30.60;;
26201;SDS011;13944;28.562;77.188;2023-02-27T09:47:55;49.47;;;29.83;;
26201;SDS011;13944;28.562;77.188;2023-02-27T09:52:54;46.35;;;31.02;;
26201;SDS011;13944;28.562;77.188;2023-02-27T09:55:21;55.83;;;30.55;;
26201;SDS011;13944;28.562;77.188;2023-02-27T09:57:51;52.17;;;28.75;;
26201;SDS011;13944;28.562;77.188;2023-02-27T10:00:37;46.40;;;28.60;;
26201;SDS011;13944;28.562;77.188;2023-02-27T10:05:57;48.88;;;29.45;;
26201;SDS011;13944;28.562;77.188;2023-02-27T10:11:09;49.65;;;28.90;;
26201;SDS011;13944;28.562;77.188;2023-02-27T10:13:41;44.60;;;27.52;;
26201;SDS011;13944;28.562;77.188;2023-02-27T10:16:13;41.67;;;29.00;;
26201;SDS011;13944;28.562;77.188;2023-02-27T10:21:16;53.78;;;32.47;;
26201;SDS011;13944;28.562;77.188;2023-02-27T10:26:25;46.70;;;30.65;;
26201;SDS011;13944;28.562;77.188;2023-02-27T10:28:54;48.92;;;30.85;;
26201;SDS011;13944;28.562;77.188;2023-02-27T10:31:25;49.38;;;30.95;;
26201;SDS011;13944;28.562;77.188;2023-02-27T10:33:54;54.80;;;31.48;;
26201;SDS011;13944;28.562;77.188;2023-02-27T10:36:21;58.28;;;35.17;;
26201;SDS011;13944;28.562;77.188;2023-02-27T10:38:50;52.55;;;34.25;;
26201;SDS011;13944;28.562;77.188;2023-02-27T10:41:18;56.97;;;36.63;;
26201;SDS011;13944;28.562;77.188;2023-02-27T10:43:46;59.20;;;39.35;;
26201;SDS011;13944;28.562;77.188;2023-02-27T10:48:41;67.35;;;41.25;;
26201;SDS011;13944;28.562;77.188;2023-02-27T10:51:30;64.65;;;39.58;;
26201;SDS011;13944;28.562;77.188;2023-02-27T10:56:56;56.83;;;36.22;;
26201;SDS011;13944;28.562;77.188;2023-02-27T10:59:25;52.33;;;33.55;;
26201;SDS011;13944;28.562;77.188;2023-02-27T11:01:56;62.25;;;40.08;;
26201;SDS011;13944;28.562;77.188;2023-02-27T11:04:27;63.28;;;38.60;;
26201;SDS011;13944;28.562;77.188;2023-02-27T11:06:54;58.53;;;38.92;;
26201;SDS011;13944;28.562;77.188;2023-02-27T11:09:26;58.08;;;39.42;;
26201;SDS011;13944;28.562;77.188;2023-02-27T11:11:54;61.60;;;38.35;;
26201;SDS011;13944;28.562;77.188;2023-02-27T11:14:25;61.50;;;41.25;;
26201;SDS011;13944;28.562;77.188;2023-02-27T11:16:54;63.72;;;40.25;;
26201;SDS011;13944;28.562;77.188;2023-02-27T11:22:16;55.33;;;37.15;;
26201;SDS011;13944;28.562;77.188;2023-02-27T11:24:45;57.83;;;39.78;;
26201;SDS011;13944;28.562;77.188;2023-02-27T11:27:17;66.45;;;40.42;;
26201;SDS011;13944;28.562;77.188;2023-02-27T11:29:59;62.80;;;40.13;;
26201;SDS011;13944;28.562;77.188;2023-02-27T11:32:45;59.70;;;39.50;;
26201;SDS011;13944;28.562;77.188;2023-02-27T11:35:24;61.65;;;40.67;;
26201;SDS011;13944;28.562;77.188;2023-02-27T11:37:52;63.50;;;39.85;;
26201;SDS011;13944;28.562;77.188;2023-02-27T11:40:21;60.33;;;39.90;;
26201;SDS011;13944;28.562;77.188;2023-02-27T11:42:51;69.55;;;40.92;;
26201;SDS011;13944;28.562;77.188;2023-02-27T11:45:32;62.17;;;39.60;;
26201;SDS011;13944;28.562;77.188;2023-02-27T11:48:00;61.75;;;40.38;;
26201;SDS011;13944;28.562;77.188;2023-02-27T11:53:03;63.85;;;40.67;;
26201;SDS011;13944;28.562;77.188;2023-02-27T11:55:33;66.70;;;39.40;;
26201;SDS011;13944;28.562;77.188;2023-02-27T11:58:01;70.38;;;39.95;;
26201;SDS011;13944;28.562;77.188;2023-02-27T12:03:13;59.42;;;37.35;;
26201;SDS011;13944;28.562;77.188;2023-02-27T12:05:47;61.65;;;35.78;;
26201;SDS011;13944;28.562;77.188;2023-02-27T12:10:54;64.47;;;34.85;;
26201;SDS011;13944;28.562;77.188;2023-02-27T12:13:27;63.38;;;35.63;;
26201;SDS011;13944;28.562;77.188;2023-02-27T12:21:00;60.77;;;36.50;;
26201;SDS011;13944;28.562;77.188;2023-02-27T12:36:31;54.78;;;31.63;;
26201;SDS011;13944;28.562;77.188;2023-02-27T12:38:58;57.03;;;31.27;;
26201;SDS011;13944;28.562;77.188;2023-02-27T12:52:52;82.40;;;46.22;;
26201;SDS011;13944;28.562;77.188;2023-02-27T12:57:27;83.93;;;49.75;;
26201;SDS011;13944;28.562;77.188;2023-02-27T12:59:58;79.72;;;47.53;;
26201;SDS011;13944;28.562;77.188;2023-02-27T13:10:26;81.22;;;48.25;;
26201;SDS011;13944;28.562;77.188;2023-02-27T13:13:02;84.97;;;47.88;;
26201;SDS011;13944;28.562;77.188;2023-02-27T13:20:52;84.55;;;48.22;;
26201;SDS011;13944;28.562;77.188;2023-02-27T13:23:24;87.43;;;49.47;;
26201;SDS011;13944;28.562;77.188;2023-02-27T13:25:56;104.88;;;52.17;;
26201;SDS011;13944;28.562;77.188;2023-02-27T13:28:25;90.07;;;50.70;;
26201;SDS011;13944;28.562;77.188;2023-02-27T13:33:45;96.80;;;54.28;;
26201;SDS011;13944;28.562;77.188;2023-02-27T13:38:50;103.38;;;55.67;;
26201;SDS011;13944;28.562;77.188;2023-02-27T13:46:21;118.97;;;62.22;;
26201;SDS011;13944;28.562;77.188;2023-02-27T13:48:49;124.68;;;63.47;;
26201;SDS011;13944;28.562;77.188;2023-02-27T13:54:11;115.63;;;63.80;;
26201;SDS011;13944;28.562;77.188;2023-02-27T13:59:29;116.80;;;66.15;;
26201;SDS011;13944;28.562;77.188;2023-02-27T14:02:05;117.88;;;64.28;;
26201;SDS011;13944;28.562;77.188;2023-02-27T14:04:47;129.45;;;73.63;;
26201;SDS011;13944;28.562;77.188;2023-02-27T14:07:20;152.52;;;80.97;;
26201;SDS011;13944;28.562;77.188;2023-02-27T14:12:32;170.80;;;93.78;;
26201;SDS011;13944;28.562;77.188;2023-02-27T14:15:00;176.68;;;97.85;;
26201;SDS011;13944;28.562;77.188;2023-02-27T14:20:02;181.27;;;101.68;;
26201;SDS011;13944;28.562;77.188;2023-02-27T14:22:32;159.60;;;94.15;;
26201;SDS011;13944;28.562;77.188;2023-02-27T14:27:57;144.20;;;83.95;;
26201;SDS011;13944;28.562;77.188;2023-02-27T14:30:25;141.90;;;83.15;;
26201;SDS011;13944;28.562;77.188;2023-02-27T14:35:56;152.85;;;86.10;;
26201;SDS011;13944;28.562;77.188;2023-02-27T14:38:24;151.27;;;85.32;;
26201;SDS011;13944;28.562;77.188;2023-02-27T14:40:55;146.90;;;88.38;;
26201;SDS011;13944;28.562;77.188;2023-02-27T14:43:31;153.65;;;86.00;;
26201;SDS011;13944;28.562;77.188;2023-02-27T14:46:04;159.15;;;86.57;;
26201;SDS011;13944;28.562;77.188;2023-02-27T14:48:32;166.20;;;90.90;;
26201;SDS011;13944;28.562;77.188;2023-02-27T14:51:02;165.70;;;95.07;;
26201;SDS011;13944;28.562;77.188;2023-02-27T14:53:29;163.63;;;92.70;;
26201;SDS011;13944;28.562;77.188;2023-02-27T14:55:56;175.38;;;97.50;;
26201;SDS011;13944;28.562;77.188;2023-02-27T14:58:24;187.35;;;104.15;;
26201;SDS011;13944;28.562;77.188;2023-02-27T15:03:31;226.45;;;122.85;;
26201;SDS011;13944;28.562;77.188;2023-02-27T15:06:00;236.30;;;132.07;;
26201;SDS011;13944;28.562;77.188;2023-02-27T15:08:30;249.02;;;138.02;;
26201;SDS011;13944;28.562;77.188;2023-02-27T15:10:58;264.60;;;143.40;;
26201;SDS011;13944;28.562;77.188;2023-02-27T15:13:27;277.05;;;145.85;;
26201;SDS011;13944;28.562;77.188;2023-02-27T15:18:40;265.45;;;149.50;;
26201;SDS011;13944;28.562;77.188;2023-02-27T15:21:10;286.80;;;157.93;;
26201;SDS011;13944;28.562;77.188;2023-02-27T15:23:38;296.75;;;161.02;;
26201;SDS011;13944;28.562;77.188;2023-02-27T15:26:05;317.15;;;171.80;;
26201;SDS011;13944;28.562;77.188;2023-02-27T15:28:35;311.30;;;167.32;;
26201;SDS011;13944;28.562;77.188;2023-02-27T15:31:03;303.13;;;161.65;;
26201;SDS011;13944;28.562;77.188;2023-02-27T15:33:31;287.00;;;157.68;;
26201;SDS011;13944;28.562;77.188;2023-02-27T15:35:58;273.27;;;150.70;;
26201;SDS011;13944;28.562;77.188;2023-02-27T15:40:53;261.85;;;146.73;;
26201;SDS011;13944;28.562;77.188;2023-02-27T15:43:20;251.60;;;137.13;;
26201;SDS011;13944;28.562;77.188;2023-02-27T15:45:47;247.23;;;142.60;;
26201;SDS011;13944;28.562;77.188;2023-02-27T15:48:14;239.50;;;127.13;;
26201;SDS011;13944;28.562;77.188;2023-02-27T15:50:58;231.43;;;123.32;;
26201;SDS011;13944;28.562;77.188;2023-02-27T15:53:26;229.60;;;124.00;;
26201;SDS011;13944;28.562;77.188;2023-02-27T15:56:01;213.40;;;119.57;;
26201;SDS011;13944;28.562;77.188;2023-02-27T15:58:32;227.80;;;121.88;;
26201;SDS011;13944;28.562;77.188;2023-02-27T16:01:21;217.38;;;120.13;;
26201;SDS011;13944;28.562;77.188;2023-02-27T16:03:48;228.15;;;117.13;;
26201;SDS011;13944;28.562;77.188;2023-02-27T16:06:17;216.30;;;114.47;;
26201;SDS011;13944;28.562;77.188;2023-02-27T16:11:43;208.57;;;114.15;;
26201;SDS011;13944;28.562;77.188;2023-02-27T16:16:56;185.88;;;107.50;;
26201;SDS011;13944;28.562;77.188;2023-02-27T16:19:24;184.20;;;106.47;;
26201;SDS011;13944;28.562;77.188;2023-02-27T16:24:48;181.30;;;108.72;;
26201;SDS011;13944;28.562;77.188;2023-02-27T16:27:22;187.27;;;106.35;;
26201;SDS011;13944;28.562;77.188;2023-02-27T16:29:50;188.02;;;112.72;;
26201;SDS011;13944;28.562;77.188;2023-02-27T16:32:28;194.25;;;108.47;;
26201;SDS011;13944;28.562;77.188;2023-02-27T16:35:04;195.23;;;109.47;;
26201;SDS011;13944;28.562;77.188;2023-02-27T16:37:39;184.68;;;105.97;;
26201;SDS011;13944;28.562;77.188;2023-02-27T16:40:17;183.48;;;108.88;;
26201;SDS011;13944;28.562;77.188;2023-02-27T16:42:44;179.32;;;109.50;;
26201;SDS011;13944;28.562;77.188;2023-02-27T16:45:19;177.93;;;105.05;;
26201;SDS011;13944;28.562;77.188;2023-02-27T16:47:47;184.18;;;103.03;;
26201;SDS011;13944;28.562;77.188;2023-02-27T16:52:48;166.52;;;103.53;;
26201;SDS011;13944;28.562;77.188;2023-02-27T16:55:15;162.50;;;98.10;;
26201;SDS011;13944;28.562;77.188;2023-02-27T16:57:42;161.55;;;96.20;;
26201;SDS011;13944;28.562;77.188;2023-02-27T17:00:10;156.77;;;96.53;;
26201;SDS011;13944;28.562;77.188;2023-02-27T17:02:38;146.68;;;92.18;;
26201;SDS011;13944;28.562;77.188;2023-02-27T17:05:05;146.48;;;87.85;;
26201;SDS011;13944;28.562;77.188;2023-02-27T17:07:32;140.38;;;85.50;;
26201;SDS011;13944;28.562;77.188;2023-02-27T17:09:59;151.43;;;89.10;;
26201;SDS011;13944;28.562;77.188;2023-02-27T17:12:26;158.45;;;87.50;;
26201;SDS011;13944;28.562;77.188;2023-02-27T17:14:53;152.40;;;82.70;;